createdAt,value
2022-11-15T00:01:01.557Z,95274.66
2022-11-15T00:03:29.586Z,95277.25
2022-11-15T00:06:03.882Z,95268.69
2022-11-15T00:08:32.364Z,95269.19
2022-11-15T00:11:01.142Z,95264.00
2022-11-15T00:13:29.807Z,95278.06
2022-11-15T00:16:00.401Z,95268.69
2022-11-15T00:18:28.626Z,95274.41
2022-11-15T00:20:56.323Z,95255.91
2022-11-15T00:23:23.935Z,95269.72
2022-11-15T00:25:57.479Z,95271.28
2022-11-15T00:28:24.972Z,95253.59
2022-11-15T00:30:52.690Z,95241.59
2022-11-15T00:33:21.502Z,95261.91
2022-11-15T00:35:48.969Z,95257.22
2022-11-15T00:38:16.419Z,95257.22
2022-11-15T00:40:43.868Z,95257.22
2022-11-15T00:43:11.318Z,95236.91
2022-11-15T00:45:38.754Z,95243.16
2022-11-15T00:48:06.852Z,95236.91
2022-11-15T00:50:35.667Z,95246.00
2022-11-15T00:53:03.084Z,95248.63
2022-11-15T00:55:30.522Z,95234.59
2022-11-15T00:57:57.948Z,95215.56
2022-11-15T01:00:25.491Z,95231.94
2022-11-15T01:02:52.976Z,95242.66
2022-11-15T01:05:20.458Z,95231.94
2022-11-15T01:07:49.226Z,95248.91
2022-11-15T01:10:16.700Z,95239.75
2022-11-15T01:12:44.139Z,95231.44
2022-11-15T01:15:12.054Z,95238.47
2022-11-15T01:17:39.626Z,95206.72
2022-11-15T01:20:08.315Z,95239.25
2022-11-15T01:22:35.830Z,95227.03
2022-11-15T01:25:05.186Z,95227.78
2022-11-15T01:27:32.631Z,95231.19
2022-11-15T01:30:00.091Z,95226.22
2022-11-15T01:32:27.523Z,95228.06
2022-11-15T01:34:54.969Z,95225.69
2022-11-15T01:37:22.499Z,95226.72
2022-11-15T01:39:49.957Z,95216.84
2022-11-15T01:42:20.450Z,95222.03
2022-11-15T01:44:49.951Z,95219.44
2022-11-15T01:47:20.546Z,95224.94
2022-11-15T01:49:54.473Z,95217.63
2022-11-15T01:52:24.201Z,95212.41
2022-11-15T01:54:56.732Z,95202.25
2022-11-15T01:57:25.537Z,95204.84
2022-11-15T01:59:53.090Z,95197.53
2022-11-15T02:02:20.597Z,95180.13
2022-11-15T02:04:49.766Z,95190.00
2022-11-15T02:07:19.719Z,95186.88
2022-11-15T02:09:48.535Z,95192.59
2022-11-15T02:12:19.593Z,95175.13
2022-11-15T02:14:53.287Z,95177.50
2022-11-15T02:17:45.451Z,95173.84
2022-11-15T02:20:52.200Z,95164.47
2022-11-15T02:23:55.809Z,95173.84
2022-11-15T02:27:03.068Z,95173.56
2022-11-15T02:29:49.976Z,95168.66
2022-11-15T02:32:23.705Z,95176.69
2022-11-15T02:34:56.910Z,95162.63
2022-11-15T02:37:32.174Z,95158.22
2022-11-15T02:40:08.831Z,95176.44
2022-11-15T02:43:02.050Z,95150.41
2022-11-15T02:45:37.519Z,95166.00
2022-11-15T02:48:09.175Z,95158.22
2022-11-15T02:50:37.052Z,95170.19
2022-11-15T02:53:04.767Z,95172.28
2022-11-15T02:55:34.852Z,95169.13
2022-11-15T02:58:16.955Z,95169.91
2022-11-15T03:00:52.554Z,95169.38
2022-11-15T03:03:50.866Z,95160.00
2022-11-15T03:06:31.030Z,95161.84
2022-11-15T03:09:06.086Z,95138.44
2022-11-15T03:11:38.927Z,95163.94
2022-11-15T03:14:15.956Z,95161.84
2022-11-15T03:16:50.211Z,95141.81
2022-11-15T03:19:25.182Z,95151.44
2022-11-15T03:21:54.398Z,95145.72
2022-11-15T03:24:26.281Z,95151.19
2022-11-15T03:26:56.820Z,95149.63
2022-11-15T03:29:29.518Z,95140.53
2022-11-15T03:32:02.691Z,95130.66
2022-11-15T03:34:35.943Z,95148.34
2022-11-15T03:37:07.838Z,95149.13
2022-11-15T03:39:35.520Z,95143.91
2022-11-15T03:42:15.920Z,95155.38
2022-11-15T03:44:49.857Z,95148.34
2022-11-15T03:47:22.888Z,95146.53
2022-11-15T03:49:55.615Z,95143.66
2022-11-15T03:52:23.742Z,95147.31
2022-11-15T03:54:54.286Z,95150.44
2022-11-15T03:57:21.803Z,95153.56
2022-11-15T03:59:49.317Z,95136.38
2022-11-15T04:02:16.755Z,95154.06
2022-11-15T04:04:44.253Z,95150.16
2022-11-15T04:07:13.098Z,95130.38
2022-11-15T04:09:54.841Z,95147.81
2022-11-15T04:12:31.512Z,95105.91
2022-11-15T04:15:17.282Z,95137.66
2022-11-15T04:17:46.618Z,95150.66
2022-11-15T04:20:35.429Z,95142.63
2022-11-15T04:23:25.306Z,95141.06
2022-11-15T04:25:55.815Z,95148.59
2022-11-15T04:28:24.048Z,95147.56
2022-11-15T04:30:51.523Z,95139.50
2022-11-15T04:33:19.186Z,95140.28
2022-11-15T04:36:06.767Z,95140.56
2022-11-15T04:38:35.036Z,95145.25
2022-11-15T04:41:02.599Z,95149.44
2022-11-15T04:43:31.112Z,95149.69
2022-11-15T04:45:58.799Z,95140.84
2022-11-15T04:48:26.232Z,95150.22
2022-11-15T04:50:53.737Z,95140.06
2022-11-15T04:53:21.163Z,95145.81
2022-11-15T04:55:49.947Z,95148.16
2022-11-15T04:58:17.395Z,95116.94
2022-11-15T05:00:44.941Z,95127.34
2022-11-15T05:03:30.471Z,95130.47
2022-11-15T05:05:59.508Z,95134.06
2022-11-15T05:08:27.179Z,95119.75
2022-11-15T05:10:55.983Z,95131.47
2022-11-15T05:13:23.860Z,95137.19
2022-11-15T05:15:51.353Z,95150.19
2022-11-15T05:18:23.337Z,95154.88
2022-11-15T05:20:51.257Z,95121.81
2022-11-15T05:23:18.716Z,95135.88
2022-11-15T05:25:46.170Z,95141.06
2022-11-15T05:28:15.093Z,95148.88
2022-11-15T05:30:42.517Z,95150.44
2022-11-15T05:33:10.010Z,95140.31
2022-11-15T05:35:41.903Z,95153.56
2022-11-15T05:38:09.403Z,95139.28
2022-11-15T05:40:37.297Z,95141.59
2022-11-15T05:43:06.390Z,95143.13
2022-11-15T05:45:36.367Z,95145.22
2022-11-15T05:48:08.458Z,95143.94
2022-11-15T05:50:38.736Z,95141.03
2022-11-15T05:53:07.285Z,95109.81
2022-11-15T05:55:34.980Z,95142.09
2022-11-15T05:58:02.962Z,95147.81
2022-11-15T06:00:30.563Z,95111.38
2022-11-15T06:02:59.364Z,95147.03
2022-11-15T06:05:26.916Z,95155.34
2022-11-15T06:07:54.384Z,95149.88
2022-11-15T06:10:21.845Z,95157.94
2022-11-15T06:12:49.281Z,95157.16
2022-11-15T06:15:16.731Z,95138.94
2022-11-15T06:17:44.174Z,95133.72
2022-11-15T06:20:13.357Z,95167.31
2022-11-15T06:22:40.819Z,95164.97
2022-11-15T06:25:08.838Z,95172.53
2022-11-15T06:27:36.368Z,95150.63
2022-11-15T06:30:04.075Z,95174.84
2022-11-15T06:32:31.891Z,95164.94
2022-11-15T06:34:59.329Z,95164.19
2022-11-15T06:37:28.133Z,95170.13
2022-11-15T06:39:55.582Z,95164.44
2022-11-15T06:42:22.999Z,95179.50
2022-11-15T06:44:50.435Z,95166.50
2022-11-15T06:47:17.878Z,95179.50
2022-11-15T06:49:45.313Z,95162.84
2022-11-15T06:52:12.742Z,95176.06
2022-11-15T06:54:41.534Z,95160.72
2022-11-15T06:57:08.973Z,95177.34
2022-11-15T06:59:40.327Z,95169.50
2022-11-15T07:02:08.222Z,95189.50
2022-11-15T07:04:37.026Z,95174.94
2022-11-15T07:07:04.540Z,95180.88
2022-11-15T07:09:31.996Z,95191.09
2022-11-15T07:12:06.183Z,95192.44
2022-11-15T07:14:35.302Z,95191.38
2022-11-15T07:17:05.263Z,95185.91
2022-11-15T07:19:32.682Z,95198.63
2022-11-15T07:22:00.102Z,95199.16
2022-11-15T07:24:27.527Z,95189.28
2022-11-15T07:26:55.282Z,95202.25
2022-11-15T07:29:24.118Z,95206.13
2022-11-15T07:31:52.356Z,95202.75
2022-11-15T07:34:19.809Z,95207.94
2022-11-15T07:36:47.214Z,95207.16
2022-11-15T07:39:14.994Z,95210.25
2022-11-15T07:41:44.268Z,95204.34
2022-11-15T07:44:11.662Z,95200.19
2022-11-15T07:46:40.493Z,95198.91
2022-11-15T07:49:08.061Z,95211.13
2022-11-15T07:51:35.486Z,95213.47
2022-11-15T07:54:02.976Z,95204.13
2022-11-15T07:56:30.394Z,95205.69
2022-11-15T07:58:58.376Z,95195.56
2022-11-15T08:01:25.858Z,95201.00
2022-11-15T08:03:54.661Z,95193.97
2022-11-15T08:06:22.090Z,95200.19
2022-11-15T08:08:49.567Z,95182.47
2022-11-15T08:11:16.979Z,95190.28
2022-11-15T08:13:44.400Z,95189.50
2022-11-15T08:16:12.868Z,95198.59
2022-11-15T08:18:40.302Z,95189.47
2022-11-15T08:21:15.600Z,95199.34
2022-11-15T08:23:45.973Z,95185.34
2022-11-15T08:26:13.793Z,95191.88
2022-11-15T08:28:41.190Z,95197.84
2022-11-15T08:31:08.664Z,95191.91
2022-11-15T08:33:37.334Z,95182.28
2022-11-15T08:36:05.333Z,95177.59
2022-11-15T08:38:34.310Z,95173.97
2022-11-15T08:41:04.011Z,95172.41
2022-11-15T08:43:32.125Z,95173.75
2022-11-15T08:46:00.094Z,95175.03
2022-11-15T08:48:27.597Z,95166.50
2022-11-15T08:50:56.297Z,95170.16
2022-11-15T08:53:23.735Z,95174.03
2022-11-15T08:55:52.489Z,95169.09
2022-11-15T08:58:19.911Z,95180.03
2022-11-15T09:00:47.362Z,95168.84
2022-11-15T09:03:14.833Z,95178.47
2022-11-15T09:05:42.233Z,95172.50
2022-11-15T09:08:40.454Z,95160.03
2022-11-15T09:10:58.406Z,95159.75
2022-11-15T09:13:25.884Z,95167.56
2022-11-15T09:15:53.365Z,95158.50
2022-11-15T09:18:23.115Z,95147.28
2022-11-15T09:20:50.534Z,95153.00
2022-11-15T09:23:18.008Z,95154.84
2022-11-15T09:25:45.395Z,95154.03
2022-11-15T09:28:14.151Z,95148.81
2022-11-15T09:30:41.565Z,95146.22
2022-11-15T09:33:09.585Z,95136.88
2022-11-15T09:35:37.258Z,95134.81
2022-11-15T09:38:05.236Z,95136.88
2022-11-15T09:40:34.062Z,95137.94
2022-11-15T09:43:12.821Z,95129.34
2022-11-15T09:45:54.273Z,95118.69
2022-11-15T09:48:50.930Z,95121.81
2022-11-15T09:51:27.233Z,95128.06
2022-11-15T09:56:48.908Z,95124.97
2022-11-15T09:59:29.172Z,95121.59
2022-11-15T10:02:10.539Z,95121.88
2022-11-15T10:04:39.150Z,95111.72
2022-11-15T10:07:15.895Z,95120.06
2022-11-15T10:09:49.733Z,95121.63
2022-11-15T10:12:18.111Z,95108.59
2022-11-15T10:14:53.207Z,95107.28
2022-11-15T10:17:44.143Z,95093.25
2022-11-15T10:20:19.577Z,95074.25
2022-11-15T10:22:49.304Z,95094.53
2022-11-15T10:25:23.304Z,95101.81
2022-11-15T10:27:59.588Z,95089.56
2022-11-15T10:30:38.467Z,95075.00
2022-11-15T10:33:34.497Z,95068.78
2022-11-15T10:36:26.382Z,95071.13
2022-11-15T10:38:57.412Z,95062.00
2022-11-15T10:41:32.510Z,95064.34
2022-11-15T10:44:11.438Z,95053.16
2022-11-15T10:46:48.366Z,95057.06
2022-11-15T10:49:19.398Z,95044.25
2022-11-15T10:51:49.508Z,95030.94
2022-11-15T10:54:24.402Z,95023.59
2022-11-15T10:56:54.601Z,95029.03
2022-11-15T10:59:26.750Z,95010.78
2022-11-15T11:01:54.264Z,95004.94
2022-11-15T11:04:23.222Z,95003.28
2022-11-15T11:06:52.995Z,94999.13
2022-11-15T11:09:38.942Z,94998.69
2022-11-15T11:12:08.262Z,95006.50
2022-11-15T11:14:37.681Z,95014.84
2022-11-15T11:17:12.183Z,94992.13
2022-11-15T11:19:58.180Z,94996.69
2022-11-15T11:22:34.378Z,94993.28
2022-11-15T11:25:13.845Z,94978.41
2022-11-15T11:27:49.146Z,94986.97
2022-11-15T11:30:22.466Z,94983.97
2022-11-15T11:33:06.574Z,95001.19
2022-11-15T11:35:45.056Z,94982.31
2022-11-15T11:38:34.654Z,94970.78
2022-11-15T11:41:10.758Z,94958.31
2022-11-15T11:43:46.863Z,94954.91
2022-11-15T11:46:27.798Z,94959.44
2022-11-15T11:49:00.672Z,94956.84
2022-11-15T11:51:34.779Z,94948.38
2022-11-15T11:54:08.053Z,94960.47
2022-11-15T11:56:38.564Z,94947.84
2022-11-15T11:59:16.015Z,94942.28
2022-11-15T12:01:45.413Z,94934.75
2022-11-15T12:04:17.889Z,94933.97
2022-11-15T12:06:51.425Z,94937.84
2022-11-15T12:09:25.649Z,94939.31
2022-11-15T12:12:00.193Z,94935.56
2022-11-15T12:14:34.405Z,94921.75
2022-11-15T12:17:02.403Z,94930.28
2022-11-15T12:19:31.188Z,94918.19
2022-11-15T12:22:03.966Z,94927.81
2022-11-15T12:24:36.797Z,94909.47
2022-11-15T12:27:09.341Z,94911.38
2022-11-15T12:29:41.295Z,94907.38
2022-11-15T12:32:25.357Z,94897.38
2022-11-15T12:34:54.976Z,94892.44
2022-11-15T12:37:57.440Z,94898.91
2022-11-15T12:40:36.545Z,94894.44
2022-11-15T12:43:26.779Z,94887.81
2022-11-15T12:45:54.210Z,94894.50
2022-11-15T12:48:51.856Z,94892.25
2022-11-15T12:51:22.175Z,94895.13
2022-11-15T12:53:51.038Z,94890.59
2022-11-15T12:56:25.833Z,94885.88
2022-11-15T12:58:56.528Z,94869.38
2022-11-15T13:02:01.753Z,94865.88
2022-11-15T13:04:32.743Z,94872.44
2022-11-15T13:07:03.828Z,94867.59
2022-11-15T13:09:56.333Z,94852.53
2022-11-15T13:12:58.994Z,94860.19
2022-11-15T13:15:57.231Z,94852.63
2022-11-15T13:18:38.329Z,94854.69
2022-11-15T13:21:37.521Z,94852.19
2022-11-15T13:24:05.895Z,94853.13
2022-11-15T13:26:35.637Z,94843.50
2022-11-15T13:29:03.108Z,94848.91
2022-11-15T13:31:36.724Z,94843.59
2022-11-15T13:34:36.545Z,94826.16
2022-11-15T13:37:05.170Z,94824.47
2022-11-15T13:39:35.049Z,94820.50
2022-11-15T13:42:03.943Z,94804.34
2022-11-15T13:44:33.277Z,94807.19
2022-11-15T13:47:06.738Z,94793.72
2022-11-15T13:49:35.770Z,94806.91
2022-11-15T13:52:06.459Z,94800.19
2022-11-15T13:54:37.338Z,94808.81
2022-11-15T13:57:12.243Z,94800.19
2022-11-15T13:59:48.336Z,94799.88
2022-11-15T14:02:19.055Z,94795.03
2022-11-15T14:04:49.886Z,94782.91
2022-11-15T14:07:20.480Z,94780.66
2022-11-15T14:09:48.893Z,94788.63
2022-11-15T14:12:32.951Z,94771.50
2022-11-15T14:15:02.246Z,94754.75
2022-11-15T14:17:45.666Z,94762.66
2022-11-15T14:20:33.430Z,94765.56
2022-11-15T14:23:02.992Z,94768.94
2022-11-15T14:25:31.490Z,94755.69
2022-11-15T14:28:18.621Z,94749.06
2022-11-15T14:30:50.823Z,94746.19
2022-11-15T14:33:23.020Z,94735.75
2022-11-15T14:35:50.970Z,94736.59
2022-11-15T14:38:18.458Z,94730.03
2022-11-15T14:40:46.271Z,94715.19
2022-11-15T14:43:14.185Z,94683.38
2022-11-15T14:45:43.509Z,94709.66
2022-11-15T14:48:11.198Z,94729.06
2022-11-15T14:50:39.564Z,94729.84
2022-11-15T14:53:07.508Z,94727.19
2022-11-15T14:55:37.102Z,94716.75
2022-11-15T14:58:05.515Z,94702.44
2022-11-15T15:00:35.578Z,94706.41
2022-11-15T15:03:05.210Z,94709.75
2022-11-15T15:05:34.779Z,94700.72
2022-11-15T15:08:02.465Z,94698.88
2022-11-15T15:10:40.124Z,94697.47
2022-11-15T15:13:17.842Z,94691.81
2022-11-15T15:15:45.897Z,94689.78
2022-11-15T15:18:14.682Z,94671.50
2022-11-15T15:20:43.739Z,94670.38
2022-11-15T15:23:17.452Z,94678.78
2022-11-15T15:25:46.350Z,94672.22
2022-11-15T15:28:14.181Z,94667.59
2022-11-15T15:30:41.638Z,94666.94
2022-11-15T15:33:09.063Z,94663.63
2022-11-15T15:35:37.915Z,94662.69
2022-11-15T15:38:05.839Z,94664.59
2022-11-15T15:40:34.804Z,94661.41
2022-11-15T15:43:02.598Z,94662.81
2022-11-15T15:45:30.540Z,94649.84
2022-11-15T15:47:58.110Z,94660.72
2022-11-15T15:50:27.430Z,94665.63
2022-11-15T15:52:58.360Z,94661.97
2022-11-15T15:55:26.860Z,94658.94
2022-11-15T15:57:54.593Z,94656.56
2022-11-15T16:00:23.962Z,94653.22
2022-11-15T16:02:51.726Z,94640.13
2022-11-15T16:05:19.948Z,94647.19
2022-11-15T16:07:48.380Z,94628.78
2022-11-15T16:10:22.200Z,94647.81
2022-11-15T16:12:50.549Z,94648.81
2022-11-15T16:15:18.467Z,94627.50
2022-11-15T16:17:50.382Z,94640.69
2022-11-15T16:20:29.590Z,94638.38
2022-11-15T16:22:57.099Z,94641.75
2022-11-15T16:25:26.449Z,94643.53
2022-11-15T16:27:53.973Z,94644.56
2022-11-15T16:30:23.926Z,94635.25
2022-11-15T16:32:51.684Z,94645.06
2022-11-15T16:35:19.723Z,94649.00
2022-11-15T16:37:48.188Z,94640.97
2022-11-15T16:40:25.636Z,94636.59
2022-11-15T16:42:56.206Z,94640.75
2022-11-15T16:45:24.205Z,94630.81
2022-11-15T16:47:51.684Z,94628.94
2022-11-15T16:50:24.144Z,94617.84
2022-11-15T16:52:53.703Z,94634.41
2022-11-15T16:55:21.381Z,94633.16
2022-11-15T16:57:49.129Z,94627.09
2022-11-15T17:00:20.238Z,94625.28
2022-11-15T17:02:49.183Z,94621.66
2022-11-15T17:05:20.272Z,94628.00
2022-11-15T17:07:50.255Z,94619.88
2022-11-15T17:10:18.515Z,94608.22
2022-11-15T17:12:45.933Z,94617.84
2022-11-15T17:15:14.426Z,94610.69
2022-11-15T17:17:43.991Z,94610.94
2022-11-15T17:20:15.701Z,94613.22
2022-11-15T17:22:43.231Z,94606.66
2022-11-15T17:25:11.257Z,94601.50
2022-11-15T17:27:38.726Z,94589.59
2022-11-15T17:30:07.800Z,94598.41
2022-11-15T17:32:36.768Z,94599.25
2022-11-15T17:35:10.658Z,94593.56
2022-11-15T17:37:42.537Z,94592.81
2022-11-15T17:40:10.986Z,94586.84
2022-11-15T17:42:38.412Z,94586.38
2022-11-15T17:45:09.881Z,94587.69
2022-11-15T17:47:38.421Z,94592.97
2022-11-15T17:50:07.551Z,94592.41
2022-11-15T17:52:34.991Z,94596.00
2022-11-15T17:55:02.513Z,94582.53
2022-11-15T17:57:29.932Z,94581.78
2022-11-15T17:59:57.361Z,94592.41
2022-11-15T18:02:24.797Z,94582.97
2022-11-15T18:04:52.334Z,94586.13
2022-11-15T18:07:21.193Z,94573.66
2022-11-15T18:09:48.717Z,94581.47
2022-11-15T18:12:16.594Z,94576.00
2022-11-15T18:14:44.027Z,94587.84
2022-11-15T18:17:11.448Z,94586.56
2022-11-15T18:19:38.885Z,94583.88
2022-11-15T18:22:09.700Z,94582.06
2022-11-15T18:24:39.290Z,94567.75
2022-11-15T18:27:07.654Z,94572.69
2022-11-15T18:29:37.549Z,94574.38
2022-11-15T18:32:11.295Z,94574.09
2022-11-15T18:34:38.904Z,94576.44
2022-11-15T18:37:06.417Z,94556.47
2022-11-15T18:39:33.904Z,94555.03
2022-11-15T18:42:03.172Z,94563.03
2022-11-15T18:44:30.899Z,94556.84
2022-11-15T18:46:58.664Z,94542.63
2022-11-15T18:49:26.323Z,94534.88
2022-11-15T18:51:53.825Z,94554.22
2022-11-15T18:54:21.624Z,94551.13
2022-11-15T18:56:50.985Z,94540.28
2022-11-15T18:59:20.269Z,94525.94
2022-11-15T19:01:48.463Z,94528.03
2022-11-15T19:04:18.365Z,94529.09
2022-11-15T19:06:47.196Z,94513.16
2022-11-15T19:09:17.277Z,94519.16
2022-11-15T19:11:46.565Z,94514.50
2022-11-15T19:14:15.384Z,94520.16
2022-11-15T19:16:49.724Z,94514.72
2022-11-15T19:19:18.781Z,94523.59
2022-11-15T19:21:46.541Z,94505.47
2022-11-15T19:24:14.481Z,94514.22
2022-11-15T19:26:42.467Z,94512.53
2022-11-15T19:29:11.178Z,94507.13
2022-11-15T19:31:39.363Z,94491.75
2022-11-15T19:34:08.714Z,94504.50
2022-11-15T19:36:37.954Z,94498.25
2022-11-15T19:39:08.372Z,94503.22
2022-11-15T19:41:37.769Z,94489.22
2022-11-15T19:44:05.849Z,94494.84
2022-11-15T19:46:33.512Z,94499.78
2022-11-15T19:49:01.319Z,94505.22
2022-11-15T19:51:31.337Z,94500.06
2022-11-15T19:54:05.966Z,94491.75
2022-11-15T19:56:34.667Z,94495.91
2022-11-15T19:59:02.853Z,94465.91
2022-11-15T20:01:32.157Z,94485.00
2022-11-15T20:04:00.953Z,94491.41
2022-11-15T20:06:32.011Z,94490.63
2022-11-15T20:08:59.742Z,94480.00
2022-11-15T20:11:27.379Z,94481.63
2022-11-15T20:13:57.557Z,94478.47
2022-11-15T20:16:25.253Z,94463.81
2022-11-15T20:18:53.453Z,94482.94
2022-11-15T20:21:21.726Z,94478.50
2022-11-15T20:23:51.544Z,94478.00
2022-11-15T20:26:19.560Z,94477.16
2022-11-15T20:28:47.908Z,94475.81
2022-11-15T20:31:17.520Z,94477.06
2022-11-15T20:33:45.666Z,94473.97
2022-11-15T20:36:15.880Z,94464.69
2022-11-15T20:38:45.167Z,94470.38
2022-11-15T20:41:14.755Z,94461.31
2022-11-15T20:43:43.557Z,94463.63
2022-11-15T20:46:12.338Z,94451.16
2022-11-15T20:48:40.259Z,94457.91
2022-11-15T20:51:10.511Z,94433.97
2022-11-15T20:53:37.972Z,94450.59
2022-11-15T20:56:08.298Z,94441.22
2022-11-15T20:58:37.984Z,94434.13
2022-11-15T21:01:05.813Z,94432.00
2022-11-15T21:03:34.139Z,94423.13
2022-11-15T21:06:01.915Z,94421.34
2022-11-15T21:08:49.527Z,94422.91
2022-11-15T21:11:34.479Z,94423.94
2022-11-15T21:14:08.797Z,94424.34
2022-11-15T21:16:36.847Z,94421.44
2022-11-15T21:19:04.883Z,94410.50
2022-11-15T21:21:32.313Z,94417.56
2022-11-15T21:24:00.053Z,94394.19
2022-11-15T21:26:27.522Z,94412.38
2022-11-15T21:28:54.991Z,94406.00
2022-11-15T21:31:23.847Z,94408.88
2022-11-15T21:33:51.366Z,94413.91
2022-11-15T21:36:18.801Z,94409.47
2022-11-15T21:38:46.237Z,94407.91
2022-11-15T21:41:13.673Z,94410.63
2022-11-15T21:43:41.078Z,94406.09
2022-11-15T21:46:08.624Z,94402.44
2022-11-15T21:48:37.482Z,94413.03
2022-11-15T21:51:07.148Z,94404.25
2022-11-15T21:53:35.277Z,94400.00
2022-11-15T21:56:03.725Z,94400.31
2022-11-15T21:58:32.041Z,94400.38
2022-11-15T22:01:17.484Z,94402.25
2022-11-15T22:03:46.686Z,94391.31
2022-11-15T22:06:17.772Z,94391.81
2022-11-15T22:08:46.566Z,94392.38
2022-11-15T22:11:14.642Z,94390.03
2022-11-15T22:13:42.252Z,94367.56
2022-11-15T22:16:10.475Z,94369.91
2022-11-15T22:18:39.081Z,94370.25
2022-11-15T22:21:11.120Z,94352.19
2022-11-15T22:23:39.200Z,94346.47
2022-11-15T22:26:07.559Z,94361.38
2022-11-15T22:28:35.541Z,94360.41
2022-11-15T22:31:03.578Z,94337.03
2022-11-15T22:33:33.017Z,94355.03
2022-11-15T22:36:00.778Z,94355.59
2022-11-15T22:38:30.026Z,94356.16
2022-11-15T22:40:58.318Z,94354.13
2022-11-15T22:43:27.299Z,94360.63
2022-11-15T22:45:55.267Z,94348.56
2022-11-15T22:48:24.501Z,94348.06
2022-11-15T22:50:52.333Z,94338.00
2022-11-15T22:53:20.457Z,94336.19
2022-11-15T22:55:52.615Z,94325.47
2022-11-15T22:58:20.840Z,94341.31
2022-11-15T23:00:51.976Z,94338.78
2022-11-15T23:03:20.794Z,94331.75
2022-11-15T23:05:49.314Z,94337.44
2022-11-15T23:08:17.203Z,94325.69
2022-11-15T23:11:03.058Z,94324.81
2022-11-15T23:13:33.546Z,94324.06
2022-11-15T23:16:21.667Z,94319.41
2022-11-15T23:18:50.276Z,94316.69
2022-11-15T23:21:41.311Z,94311.28
2022-11-15T23:24:10.012Z,94316.91
2022-11-15T23:26:38.118Z,94321.16
2022-11-15T23:29:08.950Z,94313.50
2022-11-15T23:32:01.634Z,94309.66
2022-11-15T23:34:30.528Z,94312.25
2022-11-15T23:36:58.049Z,94291.59
2022-11-15T23:39:25.631Z,94304.75
2022-11-15T23:41:53.120Z,94312.06
2022-11-15T23:44:22.290Z,94303.38
2022-11-15T23:46:49.887Z,94299.22
2022-11-15T23:49:17.427Z,94306.66
2022-11-15T23:51:44.969Z,94311.97
2022-11-15T23:54:12.927Z,94272.38
2022-11-15T23:56:40.973Z,94298.00
2022-11-15T23:59:09.311Z,94289.19
